sensor_id;sensor_type;location;lat;lon;timestamp;temperature;humidity
3380;DHT22;1703;51.964;7.642;2023-05-29T00:01:05;14.80;99.90
3380;DHT22;1703;51.964;7.642;2023-05-29T00:03:34;14.80;99.90
3380;DHT22;1703;51.964;7.642;2023-05-29T00:06:02;14.70;99.90
3380;DHT22;1703;51.964;7.642;2023-05-29T00:08:29;14.60;99.90
3380;DHT22;1703;51.964;7.642;2023-05-29T00:10:58;14.60;99.90
3380;DHT22;1703;51.964;7.642;2023-05-29T00:13:25;14.50;99.90
3380;DHT22;1703;51.964;7.642;2023-05-29T00:15:52;14.50;99.90
3380;DHT22;1703;51.964;7.642;2023-05-29T00:18:19;14.40;99.90
3380;DHT22;1703;51.964;7.642;2023-05-29T00:20:46;14.40;99.90
3380;DHT22;1703;51.964;7.642;2023-05-29T00:23:13;14.20;99.90
3380;DHT22;1703;51.964;7.642;2023-05-29T00:25:40;14.20;99.90
3380;DHT22;1703;51.964;7.642;2023-05-29T00:28:09;14.10;99.90
3380;DHT22;1703;51.964;7.642;2023-05-29T00:30:37;14.10;99.90
3380;DHT22;1703;51.964;7.642;2023-05-29T00:33:04;14.00;99.90
3380;DHT22;1703;51.964;7.642;2023-05-29T00:35:31;14.10;99.90
3380;DHT22;1703;51.964;7.642;2023-05-29T00:37:58;14.20;99.90
3380;DHT22;1703;51.964;7.642;2023-05-29T00:40:26;14.10;99.90
3380;DHT22;1703;51.964;7.642;2023-05-29T00:42:52;14.10;99.90
3380;DHT22;1703;51.964;7.642;2023-05-29T00:45:20;13.90;99.90
3380;DHT22;1703;51.964;7.642;2023-05-29T00:47:47;13.90;99.90
3380;DHT22;1703;51.964;7.642;2023-05-29T00:50:14;13.90;99.90
3380;DHT22;1703;51.964;7.642;2023-05-29T00:52:43;13.80;99.90
3380;DHT22;1703;51.964;7.642;2023-05-29T00:55:11;13.80;99.90
3380;DHT22;1703;51.964;7.642;2023-05-29T00:57:39;13.60;99.90
3380;DHT22;1703;51.964;7.642;2023-05-29T01:00:07;13.60;99.90
3380;DHT22;1703;51.964;7.642;2023-05-29T01:02:38;13.50;99.90
3380;DHT22;1703;51.964;7.642;2023-05-29T01:05:06;13.60;99.90
3380;DHT22;1703;51.964;7.642;2023-05-29T01:07:35;13.50;99.90
3380;DHT22;1703;51.964;7.642;2023-05-29T01:10:02;13.50;99.90
3380;DHT22;1703;51.964;7.642;2023-05-29T01:12:36;13.50;99.90
3380;DHT22;1703;51.964;7.642;2023-05-29T01:15:16;13.60;99.90
3380;DHT22;1703;51.964;7.642;2023-05-29T01:18:07;13.50;99.90
3380;DHT22;1703;51.964;7.642;2023-05-29T01:20:40;13.40;99.90
3380;DHT22;1703;51.964;7.642;2023-05-29T01:23:23;13.40;99.90
3380;DHT22;1703;51.964;7.642;2023-05-29T01:26:11;13.40;99.90
3380;DHT22;1703;51.964;7.642;2023-05-29T01:28:42;13.30;99.90
3380;DHT22;1703;51.964;7.642;2023-05-29T01:31:11;13.40;99.90
3380;DHT22;1703;51.964;7.642;2023-05-29T01:33:39;13.40;99.90
3380;DHT22;1703;51.964;7.642;2023-05-29T01:36:08;13.30;99.90
3380;DHT22;1703;51.964;7.642;2023-05-29T01:38:35;13.30;99.90
3380;DHT22;1703;51.964;7.642;2023-05-29T01:41:02;13.30;99.90
3380;DHT22;1703;51.964;7.642;2023-05-29T01:43:30;13.20;99.90
3380;DHT22;1703;51.964;7.642;2023-05-29T01:45:59;13.20;99.90
3380;DHT22;1703;51.964;7.642;2023-05-29T01:48:27;13.20;99.90
3380;DHT22;1703;51.964;7.642;2023-05-29T01:50:55;13.20;99.90
3380;DHT22;1703;51.964;7.642;2023-05-29T01:53:24;13.20;99.90
3380;DHT22;1703;51.964;7.642;2023-05-29T01:55:51;13.20;99.90
3380;DHT22;1703;51.964;7.642;2023-05-29T01:58:18;13.20;99.90
3380;DHT22;1703;51.964;7.642;2023-05-29T02:00:47;13.20;99.90
3380;DHT22;1703;51.964;7.642;2023-05-29T02:03:15;13.20;99.90
3380;DHT22;1703;51.964;7.642;2023-05-29T02:05:42;13.10;99.90
3380;DHT22;1703;51.964;7.642;2023-05-29T02:08:09;13.10;99.90
3380;DHT22;1703;51.964;7.642;2023-05-29T02:10:37;13.10;99.90
3380;DHT22;1703;51.964;7.642;2023-05-29T02:13:05;13.20;99.90
3380;DHT22;1703;51.964;7.642;2023-05-29T02:15:32;13.20;99.90
3380;DHT22;1703;51.964;7.642;2023-05-29T02:17:59;13.10;99.90
3380;DHT22;1703;51.964;7.642;2023-05-29T02:20:29;13.10;99.90
3380;DHT22;1703;51.964;7.642;2023-05-29T02:22:56;13.20;99.90
3380;DHT22;1703;51.964;7.642;2023-05-29T02:25:24;13.20;99.90
3380;DHT22;1703;51.964;7.642;2023-05-29T02:27:51;13.20;99.90
3380;DHT22;1703;51.964;7.642;2023-05-29T02:30:18;13.20;99.90
3380;DHT22;1703;51.964;7.642;2023-05-29T02:32:46;13.10;99.90
3380;DHT22;1703;51.964;7.642;2023-05-29T02:35:13;13.10;99.90
3380;DHT22;1703;51.964;7.642;2023-05-29T02:37:44;13.10;99.90
3380;DHT22;1703;51.964;7.642;2023-05-29T02:40:11;13.10;99.90
3380;DHT22;1703;51.964;7.642;2023-05-29T02:42:38;13.00;99.90
3380;DHT22;1703;51.964;7.642;2023-05-29T02:45:05;13.10;99.90
3380;DHT22;1703;51.964;7.642;2023-05-29T02:47:32;12.90;99.90
3380;DHT22;1703;51.964;7.642;2023-05-29T02:49:59;12.90;99.90
3380;DHT22;1703;51.964;7.642;2023-05-29T02:52:26;12.90;99.90
3380;DHT22;1703;51.964;7.642;2023-05-29T02:54:55;12.80;99.90
3380;DHT22;1703;51.964;7.642;2023-05-29T02:57:22;12.90;99.90
3380;DHT22;1703;51.964;7.642;2023-05-29T02:59:49;12.90;99.90
3380;DHT22;1703;51.964;7.642;2023-05-29T03:02:16;12.90;99.90
3380;DHT22;1703;51.964;7.642;2023-05-29T03:04:44;12.90;99.90
3380;DHT22;1703;51.964;7.642;2023-05-29T03:07:12;12.90;99.90
3380;DHT22;1703;51.964;7.642;2023-05-29T03:09:39;12.90;99.90
3380;DHT22;1703;51.964;7.642;2023-05-29T03:12:09;12.90;99.90
3380;DHT22;1703;51.964;7.642;2023-05-29T03:14:36;12.90;99.90
3380;DHT22;1703;51.964;7.642;2023-05-29T03:17:08;12.90;99.90
3380;DHT22;1703;51.964;7.642;2023-05-29T03:19:35;12.90;99.90
3380;DHT22;1703;51.964;7.642;2023-05-29T03:22:03;12.90;99.90
3380;DHT22;1703;51.964;7.642;2023-05-29T03:24:31;12.80;99.90
3380;DHT22;1703;51.964;7.642;2023-05-29T03:27:00;12.90;99.90
3380;DHT22;1703;51.964;7.642;2023-05-29T03:29:31;12.80;99.90
3380;DHT22;1703;51.964;7.642;2023-05-29T03:32:00;12.90;99.90
3380;DHT22;1703;51.964;7.642;2023-05-29T03:34:30;12.90;99.90
3380;DHT22;1703;51.964;7.642;2023-05-29T03:36:59;12.90;99.90
3380;DHT22;1703;51.964;7.642;2023-05-29T03:39:27;12.90;99.90
3380;DHT22;1703;51.964;7.642;2023-05-29T03:41:53;12.90;99.90
3380;DHT22;1703;51.964;7.642;2023-05-29T03:44:21;12.90;99.90
3380;DHT22;1703;51.964;7.642;2023-05-29T03:46:50;12.90;99.90
3380;DHT22;1703;51.964;7.642;2023-05-29T03:49:17;12.90;99.90
3380;DHT22;1703;51.964;7.642;2023-05-29T03:51:45;12.90;99.90
3380;DHT22;1703;51.964;7.642;2023-05-29T03:54:12;12.90;99.90
3380;DHT22;1703;51.964;7.642;2023-05-29T03:56:39;12.90;99.90
3380;DHT22;1703;51.964;7.642;2023-05-29T03:59:06;12.90;99.90
3380;DHT22;1703;51.964;7.642;2023-05-29T04:01:33;12.90;99.90
3380;DHT22;1703;51.964;7.642;2023-05-29T04:04:02;12.90;99.90
3380;DHT22;1703;51.964;7.642;2023-05-29T04:06:29;12.80;99.90
3380;DHT22;1703;51.964;7.642;2023-05-29T04:08:56;12.80;99.90
3380;DHT22;1703;51.964;7.642;2023-05-29T04:11:23;12.90;99.90
3380;DHT22;1703;51.964;7.642;2023-05-29T04:13:50;12.80;99.90
3380;DHT22;1703;51.964;7.642;2023-05-29T04:16:17;12.80;99.90
3380;DHT22;1703;51.964;7.642;2023-05-29T04:18:44;12.90;99.90
3380;DHT22;1703;51.964;7.642;2023-05-29T04:21:12;12.80;99.90
3380;DHT22;1703;51.964;7.642;2023-05-29T04:23:40;12.70;99.90
3380;DHT22;1703;51.964;7.642;2023-05-29T04:26:07;12.70;99.90
3380;DHT22;1703;51.964;7.642;2023-05-29T04:28:36;12.70;99.90
3380;DHT22;1703;51.964;7.642;2023-05-29T04:31:04;12.70;99.90
3380;DHT22;1703;51.964;7.642;2023-05-29T04:33:31;12.80;99.90
3380;DHT22;1703;51.964;7.642;2023-05-29T04:36:02;12.70;99.90
3380;DHT22;1703;51.964;7.642;2023-05-29T04:38:30;12.70;99.90
3380;DHT22;1703;51.964;7.642;2023-05-29T04:40:57;12.60;99.90
3380;DHT22;1703;51.964;7.642;2023-05-29T04:43:24;12.60;99.90
3380;DHT22;1703;51.964;7.642;2023-05-29T04:46:10;12.60;99.90
3380;DHT22;1703;51.964;7.642;2023-05-29T04:48:38;12.60;99.90
3380;DHT22;1703;51.964;7.642;2023-05-29T04:51:07;12.60;99.90
3380;DHT22;1703;51.964;7.642;2023-05-29T04:53:38;12.60;99.90
3380;DHT22;1703;51.964;7.642;2023-05-29T04:56:05;12.70;99.90
3380;DHT22;1703;51.964;7.642;2023-05-29T04:58:33;12.70;99.90
3380;DHT22;1703;51.964;7.642;2023-05-29T05:01:00;12.70;99.90
3380;DHT22;1703;51.964;7.642;2023-05-29T05:03:31;12.70;99.90
3380;DHT22;1703;51.964;7.642;2023-05-29T05:05:59;12.70;99.90
3380;DHT22;1703;51.964;7.642;2023-05-29T05:08:28;12.70;99.90
3380;DHT22;1703;51.964;7.642;2023-05-29T05:10:57;12.70;99.90
3380;DHT22;1703;51.964;7.642;2023-05-29T05:13:24;12.70;99.90
3380;DHT22;1703;51.964;7.642;2023-05-29T05:15:51;12.80;99.90
3380;DHT22;1703;51.964;7.642;2023-05-29T05:18:18;12.80;99.90
3380;DHT22;1703;51.964;7.642;2023-05-29T05:20:53;12.80;99.90
3380;DHT22;1703;51.964;7.642;2023-05-29T05:23:20;12.80;99.90
3380;DHT22;1703;51.964;7.642;2023-05-29T05:25:47;12.80;99.90
3380;DHT22;1703;51.964;7.642;2023-05-29T05:28:15;12.90;99.90
3380;DHT22;1703;51.964;7.642;2023-05-29T05:30:43;12.90;99.90
3380;DHT22;1703;51.964;7.642;2023-05-29T05:33:10;12.90;99.90
3380;DHT22;1703;51.964;7.642;2023-05-29T05:35:38;13.00;99.90
3380;DHT22;1703;51.964;7.642;2023-05-29T05:38:04;13.00;99.90
3380;DHT22;1703;51.964;7.642;2023-05-29T05:40:32;13.00;99.90
3380;DHT22;1703;51.964;7.642;2023-05-29T05:43:08;13.00;99.90
3380;DHT22;1703;51.964;7.642;2023-05-29T05:45:59;13.00;99.90
3380;DHT22;1703;51.964;7.642;2023-05-29T05:48:28;13.00;99.90
3380;DHT22;1703;51.964;7.642;2023-05-29T05:50:56;13.00;99.90
3380;DHT22;1703;51.964;7.642;2023-05-29T05:53:23;13.10;99.90
3380;DHT22;1703;51.964;7.642;2023-05-29T05:55:50;13.10;99.90
3380;DHT22;1703;51.964;7.642;2023-05-29T05:58:17;13.10;99.90
3380;DHT22;1703;51.964;7.642;2023-05-29T06:00:44;13.20;99.90
3380;DHT22;1703;51.964;7.642;2023-05-29T06:03:12;13.00;99.90
3380;DHT22;1703;51.964;7.642;2023-05-29T06:05:52;13.10;99.90
3380;DHT22;1703;51.964;7.642;2023-05-29T06:08:19;13.20;99.90
3380;DHT22;1703;51.964;7.642;2023-05-29T06:10:46;13.20;99.90
3380;DHT22;1703;51.964;7.642;2023-05-29T06:13:13;13.30;99.90
3380;DHT22;1703;51.964;7.642;2023-05-29T06:15:46;13.30;99.90
3380;DHT22;1703;51.964;7.642;2023-05-29T06:18:15;13.40;99.90
3380;DHT22;1703;51.964;7.642;2023-05-29T06:20:42;13.40;99.90
3380;DHT22;1703;51.964;7.642;2023-05-29T06:23:09;13.40;99.90
3380;DHT22;1703;51.964;7.642;2023-05-29T06:25:37;13.50;99.90
3380;DHT22;1703;51.964;7.642;2023-05-29T06:28:05;13.60;99.90
3380;DHT22;1703;51.964;7.642;2023-05-29T06:30:32;13.60;99.90
3380;DHT22;1703;51.964;7.642;2023-05-29T06:32:59;13.70;99.90
3380;DHT22;1703;51.964;7.642;2023-05-29T06:35:31;13.70;99.90
3380;DHT22;1703;51.964;7.642;2023-05-29T06:37:58;13.90;99.90
3380;DHT22;1703;51.964;7.642;2023-05-29T06:40:25;13.90;99.90
3380;DHT22;1703;51.964;7.642;2023-05-29T06:42:52;13.90;99.90
3380;DHT22;1703;51.964;7.642;2023-05-29T06:45:34;14.00;99.90
3380;DHT22;1703;51.964;7.642;2023-05-29T06:48:00;14.10;99.90
3380;DHT22;1703;51.964;7.642;2023-05-29T06:50:27;14.20;99.90
3380;DHT22;1703;51.964;7.642;2023-05-29T06:53:00;14.30;99.90
3380;DHT22;1703;51.964;7.642;2023-05-29T06:55:33;14.30;99.90
3380;DHT22;1703;51.964;7.642;2023-05-29T06:57:59;14.30;99.90
3380;DHT22;1703;51.964;7.642;2023-05-29T07:00:26;14.30;99.90
3380;DHT22;1703;51.964;7.642;2023-05-29T07:03:12;14.30;99.90
3380;DHT22;1703;51.964;7.642;2023-05-29T07:05:39;14.40;99.90
3380;DHT22;1703;51.964;7.642;2023-05-29T07:08:08;14.40;99.90
3380;DHT22;1703;51.964;7.642;2023-05-29T07:10:35;14.50;99.90
3380;DHT22;1703;51.964;7.642;2023-05-29T07:13:01;14.60;99.90
3380;DHT22;1703;51.964;7.642;2023-05-29T07:15:28;14.60;99.90
3380;DHT22;1703;51.964;7.642;2023-05-29T07:17:56;14.50;99.90
3380;DHT22;1703;51.964;7.642;2023-05-29T07:20:25;14.50;99.90
3380;DHT22;1703;51.964;7.642;2023-05-29T07:22:52;14.50;99.90
3380;DHT22;1703;51.964;7.642;2023-05-29T07:25:21;14.40;99.90
3380;DHT22;1703;51.964;7.642;2023-05-29T07:27:47;14.40;99.90
3380;DHT22;1703;51.964;7.642;2023-05-29T07:30:14;14.50;99.90
3380;DHT22;1703;51.964;7.642;2023-05-29T07:32:43;14.60;99.90
3380;DHT22;1703;51.964;7.642;2023-05-29T07:35:10;14.70;99.90
3380;DHT22;1703;51.964;7.642;2023-05-29T07:37:37;14.90;99.90
3380;DHT22;1703;51.964;7.642;2023-05-29T07:40:05;14.90;99.90
3380;DHT22;1703;51.964;7.642;2023-05-29T07:43:00;15.00;99.90
3380;DHT22;1703;51.964;7.642;2023-05-29T07:45:39;15.00;99.90
3380;DHT22;1703;51.964;7.642;2023-05-29T07:48:06;15.00;99.90
3380;DHT22;1703;51.964;7.642;2023-05-29T07:50:33;15.10;99.90
3380;DHT22;1703;51.964;7.642;2023-05-29T07:53:00;15.20;99.90
3380;DHT22;1703;51.964;7.642;2023-05-29T07:55:28;15.20;99.90
3380;DHT22;1703;51.964;7.642;2023-05-29T07:57:56;15.30;99.90
3380;DHT22;1703;51.964;7.642;2023-05-29T08:00:24;15.50;99.90
3380;DHT22;1703;51.964;7.642;2023-05-29T08:02:52;15.70;99.90
3380;DHT22;1703;51.964;7.642;2023-05-29T08:05:28;15.60;99.90
3380;DHT22;1703;51.964;7.642;2023-05-29T08:07:55;15.30;99.90
3380;DHT22;1703;51.964;7.642;2023-05-29T08:10:22;15.40;99.90
3380;DHT22;1703;51.964;7.642;2023-05-29T08:12:48;15.50;99.90
3380;DHT22;1703;51.964;7.642;2023-05-29T08:15:16;15.50;99.90
3380;DHT22;1703;51.964;7.642;2023-05-29T08:17:44;15.60;99.90
3380;DHT22;1703;51.964;7.642;2023-05-29T08:20:11;15.60;99.90
3380;DHT22;1703;51.964;7.642;2023-05-29T08:22:38;15.60;99.90
3380;DHT22;1703;51.964;7.642;2023-05-29T08:25:05;15.60;99.90
3380;DHT22;1703;51.964;7.642;2023-05-29T08:27:33;15.60;99.90
3380;DHT22;1703;51.964;7.642;2023-05-29T08:30:00;15.70;99.90
3380;DHT22;1703;51.964;7.642;2023-05-29T08:32:27;15.80;99.90
3380;DHT22;1703;51.964;7.642;2023-05-29T08:34:55;15.90;99.90
3380;DHT22;1703;51.964;7.642;2023-05-29T08:37:22;15.90;99.90
3380;DHT22;1703;51.964;7.642;2023-05-29T08:39:50;16.10;99.90
3380;DHT22;1703;51.964;7.642;2023-05-29T08:42:21;16.20;99.90
3380;DHT22;1703;51.964;7.642;2023-05-29T08:44:48;16.20;99.90
3380;DHT22;1703;51.964;7.642;2023-05-29T08:47:17;16.20;99.90
3380;DHT22;1703;51.964;7.642;2023-05-29T08:49:53;16.10;99.90
3380;DHT22;1703;51.964;7.642;2023-05-29T08:52:23;16.20;99.90
3380;DHT22;1703;51.964;7.642;2023-05-29T08:54:51;16.30;99.90
3380;DHT22;1703;51.964;7.642;2023-05-29T08:57:20;16.30;99.90
3380;DHT22;1703;51.964;7.642;2023-05-29T08:59:48;16.30;99.90
3380;DHT22;1703;51.964;7.642;2023-05-29T09:02:17;16.30;99.90
3380;DHT22;1703;51.964;7.642;2023-05-29T09:04:45;16.30;99.90
3380;DHT22;1703;51.964;7.642;2023-05-29T09:07:14;16.30;99.90
3380;DHT22;1703;51.964;7.642;2023-05-29T09:09:42;16.40;99.90
3380;DHT22;1703;51.964;7.642;2023-05-29T09:12:09;16.50;99.90
3380;DHT22;1703;51.964;7.642;2023-05-29T09:14:37;16.60;99.90
3380;DHT22;1703;51.964;7.642;2023-05-29T09:17:06;16.60;99.90
3380;DHT22;1703;51.964;7.642;2023-05-29T09:19:34;16.50;99.90
3380;DHT22;1703;51.964;7.642;2023-05-29T09:22:04;16.60;99.90
3380;DHT22;1703;51.964;7.642;2023-05-29T09:24:32;16.70;99.90
3380;DHT22;1703;51.964;7.642;2023-05-29T09:27:02;16.70;99.90
3380;DHT22;1703;51.964;7.642;2023-05-29T09:29:31;16.80;99.90
3380;DHT22;1703;51.964;7.642;2023-05-29T09:31:58;16.80;99.90
3380;DHT22;1703;51.964;7.642;2023-05-29T09:34:26;16.80;99.90
3380;DHT22;1703;51.964;7.642;2023-05-29T09:36:53;16.90;99.90
3380;DHT22;1703;51.964;7.642;2023-05-29T09:39:22;16.90;99.90
3380;DHT22;1703;51.964;7.642;2023-05-29T09:41:48;17.00;99.90
3380;DHT22;1703;51.964;7.642;2023-05-29T09:44:17;17.00;99.90
3380;DHT22;1703;51.964;7.642;2023-05-29T09:46:49;17.20;99.90
3380;DHT22;1703;51.964;7.642;2023-05-29T09:49:15;17.20;99.90
3380;DHT22;1703;51.964;7.642;2023-05-29T09:51:46;17.30;99.90
3380;DHT22;1703;51.964;7.642;2023-05-29T09:54:14;17.40;99.90
3380;DHT22;1703;51.964;7.642;2023-05-29T09:56:42;17.70;99.90
3380;DHT22;1703;51.964;7.642;2023-05-29T09:59:11;17.60;99.90
3380;DHT22;1703;51.964;7.642;2023-05-29T10:01:40;17.60;99.90
3380;DHT22;1703;51.964;7.642;2023-05-29T10:04:10;17.70;99.90
3380;DHT22;1703;51.964;7.642;2023-05-29T10:06:38;17.80;99.90
3380;DHT22;1703;51.964;7.642;2023-05-29T10:09:09;17.90;99.90
3380;DHT22;1703;51.964;7.642;2023-05-29T10:11:38;17.90;99.90
3380;DHT22;1703;51.964;7.642;2023-05-29T10:14:06;17.90;99.90
3380;DHT22;1703;51.964;7.642;2023-05-29T10:16:41;17.90;99.90
3380;DHT22;1703;51.964;7.642;2023-05-29T10:19:12;17.90;99.90
3380;DHT22;1703;51.964;7.642;2023-05-29T10:21:40;17.90;99.90
3380;DHT22;1703;51.964;7.642;2023-05-29T10:24:07;18.00;99.90
3380;DHT22;1703;51.964;7.642;2023-05-29T10:26:38;17.80;99.90
3380;DHT22;1703;51.964;7.642;2023-05-29T10:29:09;17.80;99.90
3380;DHT22;1703;51.964;7.642;2023-05-29T10:32:04;18.00;99.90
3380;DHT22;1703;51.964;7.642;2023-05-29T10:34:38;18.20;99.90
3380;DHT22;1703;51.964;7.642;2023-05-29T10:37:09;18.20;99.90
3380;DHT22;1703;51.964;7.642;2023-05-29T10:39:40;18.20;99.90
3380;DHT22;1703;51.964;7.642;2023-05-29T10:42:40;18.20;99.90
3380;DHT22;1703;51.964;7.642;2023-05-29T10:45:08;18.20;99.90
3380;DHT22;1703;51.964;7.642;2023-05-29T10:47:37;18.20;99.90
3380;DHT22;1703;51.964;7.642;2023-05-29T10:50:04;18.20;99.90
3380;DHT22;1703;51.964;7.642;2023-05-29T10:52:31;18.10;99.90
3380;DHT22;1703;51.964;7.642;2023-05-29T10:54:58;18.00;99.90
3380;DHT22;1703;51.964;7.642;2023-05-29T10:57:26;18.20;99.90
3380;DHT22;1703;51.964;7.642;2023-05-29T11:00:15;18.20;99.90
3380;DHT22;1703;51.964;7.642;2023-05-29T11:02:45;18.40;99.90
3380;DHT22;1703;51.964;7.642;2023-05-29T11:05:19;18.30;99.90
3380;DHT22;1703;51.964;7.642;2023-05-29T11:07:55;18.40;99.90
3380;DHT22;1703;51.964;7.642;2023-05-29T11:10:41;18.60;99.90
3380;DHT22;1703;51.964;7.642;2023-05-29T11:13:08;18.50;99.90
3380;DHT22;1703;51.964;7.642;2023-05-29T11:15:36;18.50;99.90
3380;DHT22;1703;51.964;7.642;2023-05-29T11:18:08;18.50;99.90
3380;DHT22;1703;51.964;7.642;2023-05-29T11:20:43;18.60;99.90
3380;DHT22;1703;51.964;7.642;2023-05-29T11:23:16;18.80;99.90
3380;DHT22;1703;51.964;7.642;2023-05-29T11:25:46;18.80;99.90
3380;DHT22;1703;51.964;7.642;2023-05-29T11:28:13;19.00;99.90
3380;DHT22;1703;51.964;7.642;2023-05-29T11:30:42;19.10;99.90
3380;DHT22;1703;51.964;7.642;2023-05-29T11:33:19;19.10;99.90
3380;DHT22;1703;51.964;7.642;2023-05-29T11:35:48;19.10;99.90
3380;DHT22;1703;51.964;7.642;2023-05-29T11:38:16;19.20;99.90
3380;DHT22;1703;51.964;7.642;2023-05-29T11:40:43;19.30;99.90
3380;DHT22;1703;51.964;7.642;2023-05-29T11:43:12;19.20;99.90
3380;DHT22;1703;51.964;7.642;2023-05-29T11:45:39;19.30;99.90
3380;DHT22;1703;51.964;7.642;2023-05-29T11:48:06;19.20;99.90
3380;DHT22;1703;51.964;7.642;2023-05-29T11:50:35;19.10;99.90
3380;DHT22;1703;51.964;7.642;2023-05-29T11:53:02;19.10;99.90
3380;DHT22;1703;51.964;7.642;2023-05-29T11:55:29;19.10;99.90
3380;DHT22;1703;51.964;7.642;2023-05-29T11:57:57;19.30;99.90
3380;DHT22;1703;51.964;7.642;2023-05-29T12:00:25;19.50;99.90
3380;DHT22;1703;51.964;7.642;2023-05-29T12:02:52;19.80;99.90
3380;DHT22;1703;51.964;7.642;2023-05-29T12:05:19;19.90;99.90
3380;DHT22;1703;51.964;7.642;2023-05-29T12:07:51;19.70;99.90
3380;DHT22;1703;51.964;7.642;2023-05-29T12:10:20;19.90;99.90
3380;DHT22;1703;51.964;7.642;2023-05-29T12:12:47;20.00;99.90
3380;DHT22;1703;51.964;7.642;2023-05-29T12:15:14;19.90;99.90
3380;DHT22;1703;51.964;7.642;2023-05-29T12:17:42;20.10;99.90
3380;DHT22;1703;51.964;7.642;2023-05-29T12:20:11;19.90;99.90
3380;DHT22;1703;51.964;7.642;2023-05-29T12:22:39;19.90;99.90
3380;DHT22;1703;51.964;7.642;2023-05-29T12:25:10;19.90;99.90
3380;DHT22;1703;51.964;7.642;2023-05-29T12:27:38;20.00;99.90
3380;DHT22;1703;51.964;7.642;2023-05-29T12:30:09;20.10;99.90
3380;DHT22;1703;51.964;7.642;2023-05-29T12:32:37;20.20;99.90
3380;DHT22;1703;51.964;7.642;2023-05-29T12:35:15;20.30;99.90
3380;DHT22;1703;51.964;7.642;2023-05-29T12:37:47;20.00;99.90
3380;DHT22;1703;51.964;7.642;2023-05-29T12:40:16;19.90;99.90
3380;DHT22;1703;51.964;7.642;2023-05-29T12:42:44;19.90;99.90
3380;DHT22;1703;51.964;7.642;2023-05-29T12:45:11;20.00;99.90
3380;DHT22;1703;51.964;7.642;2023-05-29T12:47:44;20.10;99.90
3380;DHT22;1703;51.964;7.642;2023-05-29T12:50:23;20.10;99.90
3380;DHT22;1703;51.964;7.642;2023-05-29T12:52:54;20.00;99.90
3380;DHT22;1703;51.964;7.642;2023-05-29T12:55:22;20.20;99.90
3380;DHT22;1703;51.964;7.642;2023-05-29T12:57:49;20.30;99.90
3380;DHT22;1703;51.964;7.642;2023-05-29T13:00:17;20.40;99.90
3380;DHT22;1703;51.964;7.642;2023-05-29T13:02:44;20.40;99.90
3380;DHT22;1703;51.964;7.642;2023-05-29T13:05:11;20.60;99.90
3380;DHT22;1703;51.964;7.642;2023-05-29T13:07:38;20.60;99.90
3380;DHT22;1703;51.964;7.642;2023-05-29T13:10:06;20.50;99.90
3380;DHT22;1703;51.964;7.642;2023-05-29T13:12:34;20.70;99.90
3380;DHT22;1703;51.964;7.642;2023-05-29T13:15:01;20.70;99.90
3380;DHT22;1703;51.964;7.642;2023-05-29T13:17:28;20.60;99.90
3380;DHT22;1703;51.964;7.642;2023-05-29T13:19:55;20.80;99.90
3380;DHT22;1703;51.964;7.642;2023-05-29T13:22:22;21.10;99.90
3380;DHT22;1703;51.964;7.642;2023-05-29T13:24:49;22.00;99.90
3380;DHT22;1703;51.964;7.642;2023-05-29T13:27:16;23.00;99.90
3380;DHT22;1703;51.964;7.642;2023-05-29T13:29:44;23.90;99.90
3380;DHT22;1703;51.964;7.642;2023-05-29T13:32:11;24.40;99.90
3380;DHT22;1703;51.964;7.642;2023-05-29T13:34:38;24.60;98.70
3380;DHT22;1703;51.964;7.642;2023-05-29T13:37:04;25.30;99.90
3380;DHT22;1703;51.964;7.642;2023-05-29T13:39:31;25.90;95.90
3380;DHT22;1703;51.964;7.642;2023-05-29T13:41:58;26.40;92.60
3380;DHT22;1703;51.964;7.642;2023-05-29T13:44:25;26.70;90.70
3380;DHT22;1703;51.964;7.642;2023-05-29T13:46:54;26.90;82.90
3380;DHT22;1703;51.964;7.642;2023-05-29T13:49:20;27.60;80.30
3380;DHT22;1703;51.964;7.642;2023-05-29T13:51:47;27.00;73.00
3380;DHT22;1703;51.964;7.642;2023-05-29T13:54:15;27.40;69.70
3380;DHT22;1703;51.964;7.642;2023-05-29T13:56:42;26.80;68.70
3380;DHT22;1703;51.964;7.642;2023-05-29T13:59:09;27.40;65.40
3380;DHT22;1703;51.964;7.642;2023-05-29T14:01:36;28.00;64.80
3380;DHT22;1703;51.964;7.642;2023-05-29T14:04:04;27.60;64.30
3380;DHT22;1703;51.964;7.642;2023-05-29T14:06:31;27.70;62.70
3380;DHT22;1703;51.964;7.642;2023-05-29T14:08:59;27.40;63.80
3380;DHT22;1703;51.964;7.642;2023-05-29T14:11:26;26.80;63.10
3380;DHT22;1703;51.964;7.642;2023-05-29T14:13:53;26.00;64.70
3380;DHT22;1703;51.964;7.642;2023-05-29T14:16:20;25.00;66.20
3380;DHT22;1703;51.964;7.642;2023-05-29T14:18:47;24.40;69.60
3380;DHT22;1703;51.964;7.642;2023-05-29T14:21:16;24.10;68.30
3380;DHT22;1703;51.964;7.642;2023-05-29T14:23:45;23.60;65.10
3380;DHT22;1703;51.964;7.642;2023-05-29T14:26:12;23.20;66.30
3380;DHT22;1703;51.964;7.642;2023-05-29T14:28:39;23.10;70.10
3380;DHT22;1703;51.964;7.642;2023-05-29T14:31:05;22.70;66.70
3380;DHT22;1703;51.964;7.642;2023-05-29T14:33:32;22.50;68.40
3380;DHT22;1703;51.964;7.642;2023-05-29T14:35:59;22.50;69.60
3380;DHT22;1703;51.964;7.642;2023-05-29T14:38:27;22.50;68.30
3380;DHT22;1703;51.964;7.642;2023-05-29T14:40:55;22.60;69.90
3380;DHT22;1703;51.964;7.642;2023-05-29T14:43:21;22.50;65.60
3380;DHT22;1703;51.964;7.642;2023-05-29T14:45:48;22.40;64.50
3380;DHT22;1703;51.964;7.642;2023-05-29T14:48:15;22.20;62.30
3380;DHT22;1703;51.964;7.642;2023-05-29T14:50:42;21.80;61.10
3380;DHT22;1703;51.964;7.642;2023-05-29T14:53:09;21.70;63.10
3380;DHT22;1703;51.964;7.642;2023-05-29T14:55:37;21.60;64.30
3380;DHT22;1703;51.964;7.642;2023-05-29T14:58:04;21.40;64.50
3380;DHT22;1703;51.964;7.642;2023-05-29T15:00:31;21.30;64.50
3380;DHT22;1703;51.964;7.642;2023-05-29T15:02:58;21.30;67.30
3380;DHT22;1703;51.964;7.642;2023-05-29T15:05:25;21.30;68.10
3380;DHT22;1703;51.964;7.642;2023-05-29T15:07:52;21.30;65.00
3380;DHT22;1703;51.964;7.642;2023-05-29T15:10:22;21.40;67.00
3380;DHT22;1703;51.964;7.642;2023-05-29T15:12:52;21.20;65.50
3380;DHT22;1703;51.964;7.642;2023-05-29T15:15:22;21.10;67.40
3380;DHT22;1703;51.964;7.642;2023-05-29T15:17:50;21.20;68.30
3380;DHT22;1703;51.964;7.642;2023-05-29T15:20:19;21.30;69.30
3380;DHT22;1703;51.964;7.642;2023-05-29T15:22:46;21.20;68.60
3380;DHT22;1703;51.964;7.642;2023-05-29T15:25:14;21.20;67.10
3380;DHT22;1703;51.964;7.642;2023-05-29T15:27:42;21.30;68.10
3380;DHT22;1703;51.964;7.642;2023-05-29T15:30:11;21.30;68.40
3380;DHT22;1703;51.964;7.642;2023-05-29T15:32:38;21.40;68.20
3380;DHT22;1703;51.964;7.642;2023-05-29T15:35:07;21.40;67.60
3380;DHT22;1703;51.964;7.642;2023-05-29T15:37:34;21.30;68.60
3380;DHT22;1703;51.964;7.642;2023-05-29T15:40:01;21.30;69.20
3380;DHT22;1703;51.964;7.642;2023-05-29T15:42:28;21.20;66.30
3380;DHT22;1703;51.964;7.642;2023-05-29T15:44:55;21.20;67.60
3380;DHT22;1703;51.964;7.642;2023-05-29T15:47:24;21.10;67.30
3380;DHT22;1703;51.964;7.642;2023-05-29T15:49:51;21.10;68.70
3380;DHT22;1703;51.964;7.642;2023-05-29T15:52:18;21.00;64.80
3380;DHT22;1703;51.964;7.642;2023-05-29T15:54:44;20.90;66.00
3380;DHT22;1703;51.964;7.642;2023-05-29T15:57:11;21.00;68.50
3380;DHT22;1703;51.964;7.642;2023-05-29T15:59:38;21.10;69.10
3380;DHT22;1703;51.964;7.642;2023-05-29T16:02:05;21.00;67.40
3380;DHT22;1703;51.964;7.642;2023-05-29T16:04:33;21.00;68.10
3380;DHT22;1703;51.964;7.642;2023-05-29T16:07:00;21.00;67.90
3380;DHT22;1703;51.964;7.642;2023-05-29T16:09:28;21.00;68.90
3380;DHT22;1703;51.964;7.642;2023-05-29T16:11:55;21.00;69.90